sensor_id;sensor_type;location;lat;lon;timestamp;temperature;humidity
46366;DHT22;32073;49.166;8.076;2022-08-19T00:01:17;25.20;51.80
46366;DHT22;32073;49.166;8.076;2022-08-19T00:05:18;25.20;51.80
46366;DHT22;32073;49.166;8.076;2022-08-19T00:09:21;25.20;51.80
46366;DHT22;32073;49.166;8.076;2022-08-19T00:13:23;25.20;51.80
46366;DHT22;32073;49.166;8.076;2022-08-19T00:17:23;25.20;51.70
46366;DHT22;32073;49.166;8.076;2022-08-19T00:21:25;25.20;51.70
46366;DHT22;32073;49.166;8.076;2022-08-19T00:25:30;25.20;51.80
46366;DHT22;32073;49.166;8.076;2022-08-19T00:29:31;25.20;51.80
46366;DHT22;32073;49.166;8.076;2022-08-19T00:33:32;25.10;51.80
46366;DHT22;32073;49.166;8.076;2022-08-19T00:37:34;25.20;51.90
46366;DHT22;32073;49.166;8.076;2022-08-19T00:41:35;25.20;51.90
46366;DHT22;32073;49.166;8.076;2022-08-19T00:45:36;25.10;51.80
46366;DHT22;32073;49.166;8.076;2022-08-19T00:49:48;25.10;51.80
46366;DHT22;32073;49.166;8.076;2022-08-19T00:53:52;25.00;51.80
46366;DHT22;32073;49.166;8.076;2022-08-19T00:58:01;25.20;51.90
46366;DHT22;32073;49.166;8.076;2022-08-19T01:02:04;25.00;51.90
46366;DHT22;32073;49.166;8.076;2022-08-19T01:06:05;24.90;51.90
46366;DHT22;32073;49.166;8.076;2022-08-19T01:10:10;25.00;51.90
46366;DHT22;32073;49.166;8.076;2022-08-19T01:14:13;24.90;51.90
46366;DHT22;32073;49.166;8.076;2022-08-19T01:18:16;24.90;51.90
46366;DHT22;32073;49.166;8.076;2022-08-19T01:22:26;24.90;52.00
46366;DHT22;32073;49.166;8.076;2022-08-19T01:26:28;24.80;52.00
46366;DHT22;32073;49.166;8.076;2022-08-19T01:30:33;24.80;52.10
46366;DHT22;32073;49.166;8.076;2022-08-19T01:34:35;24.80;52.10
46366;DHT22;32073;49.166;8.076;2022-08-19T01:38:37;24.80;52.10
46366;DHT22;32073;49.166;8.076;2022-08-19T01:42:39;24.80;52.20
46366;DHT22;32073;49.166;8.076;2022-08-19T01:46:41;24.70;52.20
46366;DHT22;32073;49.166;8.076;2022-08-19T01:50:43;24.80;52.30
46366;DHT22;32073;49.166;8.076;2022-08-19T01:54:44;24.80;52.30
46366;DHT22;32073;49.166;8.076;2022-08-19T01:58:58;24.80;52.30
46366;DHT22;32073;49.166;8.076;2022-08-19T02:03:01;24.80;52.30
46366;DHT22;32073;49.166;8.076;2022-08-19T02:07:02;24.80;52.30
46366;DHT22;32073;49.166;8.076;2022-08-19T02:11:03;24.80;52.30
46366;DHT22;32073;49.166;8.076;2022-08-19T02:15:05;24.80;52.40
46366;DHT22;32073;49.166;8.076;2022-08-19T02:19:07;24.70;52.40
46366;DHT22;32073;49.166;8.076;2022-08-19T02:23:10;24.80;52.40
46366;DHT22;32073;49.166;8.076;2022-08-19T02:27:11;24.70;52.40
46366;DHT22;32073;49.166;8.076;2022-08-19T02:31:15;24.70;52.40
46366;DHT22;32073;49.166;8.076;2022-08-19T02:35:18;24.70;52.40
46366;DHT22;32073;49.166;8.076;2022-08-19T02:39:19;24.70;52.40
46366;DHT22;32073;49.166;8.076;2022-08-19T02:43:20;24.70;52.40
46366;DHT22;32073;49.166;8.076;2022-08-19T02:47:22;24.70;52.40
46366;DHT22;32073;49.166;8.076;2022-08-19T02:51:26;24.60;52.40
46366;DHT22;32073;49.166;8.076;2022-08-19T02:55:28;24.60;52.50
46366;DHT22;32073;49.166;8.076;2022-08-19T02:59:33;24.60;52.50
46366;DHT22;32073;49.166;8.076;2022-08-19T03:03:34;24.60;52.60
46366;DHT22;32073;49.166;8.076;2022-08-19T03:07:35;24.50;52.50
46366;DHT22;32073;49.166;8.076;2022-08-19T03:11:37;24.50;52.60
46366;DHT22;32073;49.166;8.076;2022-08-19T03:15:43;24.50;52.60
46366;DHT22;32073;49.166;8.076;2022-08-19T03:19:45;24.50;52.70
46366;DHT22;32073;49.166;8.076;2022-08-19T03:23:46;24.40;52.70
46366;DHT22;32073;49.166;8.076;2022-08-19T03:27:47;24.40;52.70
46366;DHT22;32073;49.166;8.076;2022-08-19T03:31:49;24.30;52.70
46366;DHT22;32073;49.166;8.076;2022-08-19T03:36:10;24.30;52.70
46366;DHT22;32073;49.166;8.076;2022-08-19T03:40:11;24.20;52.60
46366;DHT22;32073;49.166;8.076;2022-08-19T03:44:13;24.20;53.40
46366;DHT22;32073;49.166;8.076;2022-08-19T03:48:14;24.20;52.90
46366;DHT22;32073;49.166;8.076;2022-08-19T03:52:17;24.10;52.90
46366;DHT22;32073;49.166;8.076;2022-08-19T03:56:18;24.10;53.10
46366;DHT22;32073;49.166;8.076;2022-08-19T04:00:19;24.10;53.00
46366;DHT22;32073;49.166;8.076;2022-08-19T04:04:21;24.10;53.10
46366;DHT22;32073;49.166;8.076;2022-08-19T04:08:22;24.10;53.20
46366;DHT22;32073;49.166;8.076;2022-08-19T04:12:22;24.10;53.20
46366;DHT22;32073;49.166;8.076;2022-08-19T04:16:27;24.10;53.20
46366;DHT22;32073;49.166;8.076;2022-08-19T04:20:31;24.00;53.10
46366;DHT22;32073;49.166;8.076;2022-08-19T04:24:34;24.00;53.20
46366;DHT22;32073;49.166;8.076;2022-08-19T04:28:35;24.00;53.20
46366;DHT22;32073;49.166;8.076;2022-08-19T04:32:37;24.00;53.20
46366;DHT22;32073;49.166;8.076;2022-08-19T04:36:39;23.90;53.20
46366;DHT22;32073;49.166;8.076;2022-08-19T04:40:43;24.00;53.30
46366;DHT22;32073;49.166;8.076;2022-08-19T04:45:10;23.90;53.30
46366;DHT22;32073;49.166;8.076;2022-08-19T04:49:13;23.90;53.40
46366;DHT22;32073;49.166;8.076;2022-08-19T04:53:14;23.90;53.40
46366;DHT22;32073;49.166;8.076;2022-08-19T04:57:15;23.90;53.40
46366;DHT22;32073;49.166;8.076;2022-08-19T05:01:25;23.90;53.50
46366;DHT22;32073;49.166;8.076;2022-08-19T05:05:28;23.90;53.60
46366;DHT22;32073;49.166;8.076;2022-08-19T05:09:30;23.90;53.60
46366;DHT22;32073;49.166;8.076;2022-08-19T05:13:30;23.90;53.70
46366;DHT22;32073;49.166;8.076;2022-08-19T05:17:32;23.90;53.70
46366;DHT22;32073;49.166;8.076;2022-08-19T05:21:33;23.90;53.70
46366;DHT22;32073;49.166;8.076;2022-08-19T05:25:53;24.00;53.90
46366;DHT22;32073;49.166;8.076;2022-08-19T05:29:54;24.10;53.90
46366;DHT22;32073;49.166;8.076;2022-08-19T05:33:54;24.10;53.90
46366;DHT22;32073;49.166;8.076;2022-08-19T05:37:56;24.10;53.80
46366;DHT22;32073;49.166;8.076;2022-08-19T05:41:59;24.20;53.80
46366;DHT22;32073;49.166;8.076;2022-08-19T05:46:02;24.20;53.70
46366;DHT22;32073;49.166;8.076;2022-08-19T05:50:04;24.30;53.80
46366;DHT22;32073;49.166;8.076;2022-08-19T05:54:06;24.40;53.80
46366;DHT22;32073;49.166;8.076;2022-08-19T05:58:07;24.40;53.70
46366;DHT22;32073;49.166;8.076;2022-08-19T06:02:09;24.40;53.70
46366;DHT22;32073;49.166;8.076;2022-08-19T06:06:11;24.50;53.70
46366;DHT22;32073;49.166;8.076;2022-08-19T06:10:15;24.50;53.60
46366;DHT22;32073;49.166;8.076;2022-08-19T06:14:18;24.60;53.60
46366;DHT22;32073;49.166;8.076;2022-08-19T06:18:21;24.60;53.50
46366;DHT22;32073;49.166;8.076;2022-08-19T06:22:22;24.60;53.50
46366;DHT22;32073;49.166;8.076;2022-08-19T06:26:23;24.70;53.50
46366;DHT22;32073;49.166;8.076;2022-08-19T06:30:25;24.70;53.50
46366;DHT22;32073;49.166;8.076;2022-08-19T06:34:28;24.70;53.50
46366;DHT22;32073;49.166;8.076;2022-08-19T06:38:31;24.90;53.50
46366;DHT22;32073;49.166;8.076;2022-08-19T06:42:34;24.90;53.40
46366;DHT22;32073;49.166;8.076;2022-08-19T06:46:36;24.90;53.50
46366;DHT22;32073;49.166;8.076;2022-08-19T06:50:38;24.90;53.40
46366;DHT22;32073;49.166;8.076;2022-08-19T06:54:39;24.90;53.30
46366;DHT22;32073;49.166;8.076;2022-08-19T06:58:42;25.00;53.30
46366;DHT22;32073;49.166;8.076;2022-08-19T07:02:43;25.00;53.20
46366;DHT22;32073;49.166;8.076;2022-08-19T07:06:45;25.00;53.30
46366;DHT22;32073;49.166;8.076;2022-08-19T07:10:46;25.10;53.30
46366;DHT22;32073;49.166;8.076;2022-08-19T07:14:48;25.00;53.20
46366;DHT22;32073;49.166;8.076;2022-08-19T07:18:50;25.10;53.20
46366;DHT22;32073;49.166;8.076;2022-08-19T07:22:51;25.10;53.20
46366;DHT22;32073;49.166;8.076;2022-08-19T07:26:55;25.20;53.30
46366;DHT22;32073;49.166;8.076;2022-08-19T07:31:00;25.30;53.20
46366;DHT22;32073;49.166;8.076;2022-08-19T07:35:02;25.30;53.30
46366;DHT22;32073;49.166;8.076;2022-08-19T07:39:08;25.30;53.20
46366;DHT22;32073;49.166;8.076;2022-08-19T07:43:12;25.40;53.00
46366;DHT22;32073;49.166;8.076;2022-08-19T07:47:13;25.50;53.10
46366;DHT22;32073;49.166;8.076;2022-08-19T07:51:20;25.50;53.10
46366;DHT22;32073;49.166;8.076;2022-08-19T07:55:24;25.60;52.90
46366;DHT22;32073;49.166;8.076;2022-08-19T07:59:25;25.70;53.00
46366;DHT22;32073;49.166;8.076;2022-08-19T08:03:27;25.80;53.00
46366;DHT22;32073;49.166;8.076;2022-08-19T08:07:47;25.90;53.00
46366;DHT22;32073;49.166;8.076;2022-08-19T08:12:14;25.90;53.00
46366;DHT22;32073;49.166;8.076;2022-08-19T08:16:16;26.00;52.90
46366;DHT22;32073;49.166;8.076;2022-08-19T08:20:18;26.20;53.00
46366;DHT22;32073;49.166;8.076;2022-08-19T08:24:19;26.30;52.90
46366;DHT22;32073;49.166;8.076;2022-08-19T08:28:20;26.40;52.70
46366;DHT22;32073;49.166;8.076;2022-08-19T08:32:21;26.40;52.60
46366;DHT22;32073;49.166;8.076;2022-08-19T08:36:22;26.60;52.90
46366;DHT22;32073;49.166;8.076;2022-08-19T08:45:11;26.90;52.60
46366;DHT22;32073;49.166;8.076;2022-08-19T08:49:26;26.90;52.10
46366;DHT22;32073;49.166;8.076;2022-08-19T08:53:32;27.10;52.10
46366;DHT22;32073;49.166;8.076;2022-08-19T09:01:53;27.10;51.50
46366;DHT22;32073;49.166;8.076;2022-08-19T09:06:04;27.20;52.10
46366;DHT22;32073;49.166;8.076;2022-08-19T09:14:42;27.20;51.30
46366;DHT22;32073;49.166;8.076;2022-08-19T09:19:01;27.20;51.30
46366;DHT22;32073;49.166;8.076;2022-08-19T09:23:03;27.30;51.10
46366;DHT22;32073;49.166;8.076;2022-08-19T09:27:04;27.40;51.40
46366;DHT22;32073;49.166;8.076;2022-08-19T09:31:05;27.50;51.00
46366;DHT22;32073;49.166;8.076;2022-08-19T09:35:06;27.50;51.10
46366;DHT22;32073;49.166;8.076;2022-08-19T09:39:07;27.70;51.10
46366;DHT22;32073;49.166;8.076;2022-08-19T09:43:07;27.80;50.90
46366;DHT22;32073;49.166;8.076;2022-08-19T09:47:12;27.90;50.50
46366;DHT22;32073;49.166;8.076;2022-08-19T09:51:17;28.00;50.20
46366;DHT22;32073;49.166;8.076;2022-08-19T09:55:19;28.10;50.20
46366;DHT22;32073;49.166;8.076;2022-08-19T09:59:21;28.20;49.80
46366;DHT22;32073;49.166;8.076;2022-08-19T10:03:22;28.30;49.40
46366;DHT22;32073;49.166;8.076;2022-08-19T10:07:23;28.30;49.00
46366;DHT22;32073;49.166;8.076;2022-08-19T10:11:25;28.20;48.50
46366;DHT22;32073;49.166;8.076;2022-08-19T10:15:26;28.30;48.50
46366;DHT22;32073;49.166;8.076;2022-08-19T10:19:27;28.30;48.60
46366;DHT22;32073;49.166;8.076;2022-08-19T10:23:32;28.40;48.50
46366;DHT22;32073;49.166;8.076;2022-08-19T10:27:36;28.40;48.10
46366;DHT22;32073;49.166;8.076;2022-08-19T10:31:38;28.50;48.20
46366;DHT22;32073;49.166;8.076;2022-08-19T10:35:38;28.60;48.20
46366;DHT22;32073;49.166;8.076;2022-08-19T10:39:39;28.70;48.00
46366;DHT22;32073;49.166;8.076;2022-08-19T10:43:41;28.80;47.60
46366;DHT22;32073;49.166;8.076;2022-08-19T10:47:42;29.00;47.40
46366;DHT22;32073;49.166;8.076;2022-08-19T10:51:42;29.10;47.20
46366;DHT22;32073;49.166;8.076;2022-08-19T10:56:02;29.20;47.10
46366;DHT22;32073;49.166;8.076;2022-08-19T11:00:22;29.20;47.20
46366;DHT22;32073;49.166;8.076;2022-08-19T11:04:24;29.30;46.90
46366;DHT22;32073;49.166;8.076;2022-08-19T11:08:25;29.40;46.50
46366;DHT22;32073;49.166;8.076;2022-08-19T11:12:27;29.40;46.40
46366;DHT22;32073;49.166;8.076;2022-08-19T11:16:28;29.40;45.30
46366;DHT22;32073;49.166;8.076;2022-08-19T11:20:30;29.50;44.50
46366;DHT22;32073;49.166;8.076;2022-08-19T11:24:31;29.50;44.40
46366;DHT22;32073;49.166;8.076;2022-08-19T11:28:33;29.40;44.10
46366;DHT22;32073;49.166;8.076;2022-08-19T11:32:33;29.50;43.30
46366;DHT22;32073;49.166;8.076;2022-08-19T11:36:38;29.50;43.10
46366;DHT22;32073;49.166;8.076;2022-08-19T11:40:40;29.50;42.60
46366;DHT22;32073;49.166;8.076;2022-08-19T11:44:42;29.60;42.50
46366;DHT22;32073;49.166;8.076;2022-08-19T11:48:43;29.60;42.30
46366;DHT22;32073;49.166;8.076;2022-08-19T11:52:44;29.70;42.20
46366;DHT22;32073;49.166;8.076;2022-08-19T11:56:46;29.80;41.70
46366;DHT22;32073;49.166;8.076;2022-08-19T12:00:48;29.90;41.90
46366;DHT22;32073;49.166;8.076;2022-08-19T12:04:48;29.90;41.80
46366;DHT22;32073;49.166;8.076;2022-08-19T12:08:49;29.90;41.30
46366;DHT22;32073;49.166;8.076;2022-08-19T12:12:50;30.00;40.40
46366;DHT22;32073;49.166;8.076;2022-08-19T12:16:51;30.00;40.30
46366;DHT22;32073;49.166;8.076;2022-08-19T12:20:53;29.90;40.30
46366;DHT22;32073;49.166;8.076;2022-08-19T12:24:57;30.00;40.30
46366;DHT22;32073;49.166;8.076;2022-08-19T12:28:59;30.00;40.30
46366;DHT22;32073;49.166;8.076;2022-08-19T12:32:59;30.00;40.30
46366;DHT22;32073;49.166;8.076;2022-08-19T12:37:03;30.00;40.30
46366;DHT22;32073;49.166;8.076;2022-08-19T12:41:06;30.00;39.90
46366;DHT22;32073;49.166;8.076;2022-08-19T12:45:10;30.10;40.50
46366;DHT22;32073;49.166;8.076;2022-08-19T12:49:12;30.20;40.50
46366;DHT22;32073;49.166;8.076;2022-08-19T12:53:13;30.40;40.70
46366;DHT22;32073;49.166;8.076;2022-08-19T12:57:15;30.50;40.30
46366;DHT22;32073;49.166;8.076;2022-08-19T13:01:16;30.70;40.20
46366;DHT22;32073;49.166;8.076;2022-08-19T13:05:21;30.80;39.80
46366;DHT22;32073;49.166;8.076;2022-08-19T13:09:23;30.90;39.60
46366;DHT22;32073;49.166;8.076;2022-08-19T13:13:24;30.90;39.30
46366;DHT22;32073;49.166;8.076;2022-08-19T13:17:26;31.10;39.30
46366;DHT22;32073;49.166;8.076;2022-08-19T13:21:27;31.20;39.30
46366;DHT22;32073;49.166;8.076;2022-08-19T13:25:30;31.20;39.20
46366;DHT22;32073;49.166;8.076;2022-08-19T13:29:31;31.40;38.90
46366;DHT22;32073;49.166;8.076;2022-08-19T13:33:50;31.40;38.60
46366;DHT22;32073;49.166;8.076;2022-08-19T13:37:51;31.40;38.60
46366;DHT22;32073;49.166;8.076;2022-08-19T13:41:52;31.40;38.60
46366;DHT22;32073;49.166;8.076;2022-08-19T13:45:54;31.40;38.20
46366;DHT22;32073;49.166;8.076;2022-08-19T13:49:58;31.40;38.10
46366;DHT22;32073;49.166;8.076;2022-08-19T13:53:59;31.40;38.00
46366;DHT22;32073;49.166;8.076;2022-08-19T13:58:00;31.30;37.70
46366;DHT22;32073;49.166;8.076;2022-08-19T14:02:02;31.30;37.80
46366;DHT22;32073;49.166;8.076;2022-08-19T14:06:03;31.20;37.70
46366;DHT22;32073;49.166;8.076;2022-08-19T14:10:06;31.20;37.80
46366;DHT22;32073;49.166;8.076;2022-08-19T14:14:07;31.20;37.60
46366;DHT22;32073;49.166;8.076;2022-08-19T14:18:08;31.10;37.30
46366;DHT22;32073;49.166;8.076;2022-08-19T14:22:09;31.10;37.60
46366;DHT22;32073;49.166;8.076;2022-08-19T14:26:12;31.00;37.30
46366;DHT22;32073;49.166;8.076;2022-08-19T14:30:17;31.00;37.40
46366;DHT22;32073;49.166;8.076;2022-08-19T14:34:20;31.00;37.70
46366;DHT22;32073;49.166;8.076;2022-08-19T14:38:22;31.00;37.20
46366;DHT22;32073;49.166;8.076;2022-08-19T14:42:23;31.00;37.00
46366;DHT22;32073;49.166;8.076;2022-08-19T14:46:25;31.00;37.00
46366;DHT22;32073;49.166;8.076;2022-08-19T14:50:27;31.10;36.50
46366;DHT22;32073;49.166;8.076;2022-08-19T14:54:29;31.10;36.70
46366;DHT22;32073;49.166;8.076;2022-08-19T14:58:30;31.10;36.60
46366;DHT22;32073;49.166;8.076;2022-08-19T15:02:31;31.10;36.90
46366;DHT22;32073;49.166;8.076;2022-08-19T15:06:34;31.10;36.40
46366;DHT22;32073;49.166;8.076;2022-08-19T15:10:34;31.10;36.60
46366;DHT22;32073;49.166;8.076;2022-08-19T15:14:36;31.20;36.80
46366;DHT22;32073;49.166;8.076;2022-08-19T15:18:37;31.30;36.30
46366;DHT22;32073;49.166;8.076;2022-08-19T15:22:39;31.40;35.80
46366;DHT22;32073;49.166;8.076;2022-08-19T15:26:41;31.50;35.50
46366;DHT22;32073;49.166;8.076;2022-08-19T15:30:43;31.60;35.50
46366;DHT22;32073;49.166;8.076;2022-08-19T15:34:43;31.60;35.50
46366;DHT22;32073;49.166;8.076;2022-08-19T15:38:44;31.60;35.60
46366;DHT22;32073;49.166;8.076;2022-08-19T15:42:46;31.60;35.70
46366;DHT22;32073;49.166;8.076;2022-08-19T15:46:49;31.70;35.70
46366;DHT22;32073;49.166;8.076;2022-08-19T15:50:49;31.70;36.00
46366;DHT22;32073;49.166;8.076;2022-08-19T15:54:50;31.80;36.20
46366;DHT22;32073;49.166;8.076;2022-08-19T15:58:51;31.80;36.30
46366;DHT22;32073;49.166;8.076;2022-08-19T16:03:13;31.80;36.10
46366;DHT22;32073;49.166;8.076;2022-08-19T16:07:33;31.80;35.90
46366;DHT22;32073;49.166;8.076;2022-08-19T16:11:34;31.90;36.20
46366;DHT22;32073;49.166;8.076;2022-08-19T16:15:35;31.90;36.80
46366;DHT22;32073;49.166;8.076;2022-08-19T16:19:36;31.90;36.20
46366;DHT22;32073;49.166;8.076;2022-08-19T16:23:37;31.90;36.20
46366;DHT22;32073;49.166;8.076;2022-08-19T16:27:39;31.80;36.20
46366;DHT22;32073;49.166;8.076;2022-08-19T16:31:42;31.80;35.90
46366;DHT22;32073;49.166;8.076;2022-08-19T16:35:44;31.80;35.90
46366;DHT22;32073;49.166;8.076;2022-08-19T16:39:44;31.70;36.00
46366;DHT22;32073;49.166;8.076;2022-08-19T16:43:45;31.60;36.00
46366;DHT22;32073;49.166;8.076;2022-08-19T16:47:46;31.60;36.10
46366;DHT22;32073;49.166;8.076;2022-08-19T16:51:47;31.50;36.10
46366;DHT22;32073;49.166;8.076;2022-08-19T16:55:49;31.50;36.10
46366;DHT22;32073;49.166;8.076;2022-08-19T16:59:53;31.40;36.20
46366;DHT22;32073;49.166;8.076;2022-08-19T17:03:54;31.40;36.20
46366;DHT22;32073;49.166;8.076;2022-08-19T17:07:55;31.20;36.00
46366;DHT22;32073;49.166;8.076;2022-08-19T17:11:56;31.20;35.80
46366;DHT22;32073;49.166;8.076;2022-08-19T17:15:56;31.20;35.70
46366;DHT22;32073;49.166;8.076;2022-08-19T17:19:58;31.10;35.60
46366;DHT22;32073;49.166;8.076;2022-08-19T17:24:02;31.00;36.20
46366;DHT22;32073;49.166;8.076;2022-08-19T17:28:17;31.00;35.50
46366;DHT22;32073;49.166;8.076;2022-08-19T17:32:20;30.90;35.40
46366;DHT22;32073;49.166;8.076;2022-08-19T17:36:21;30.90;35.20
46366;DHT22;32073;49.166;8.076;2022-08-19T17:40:23;30.90;35.10
46366;DHT22;32073;49.166;8.076;2022-08-19T17:44:25;30.80;35.00
46366;DHT22;32073;49.166;8.076;2022-08-19T17:48:25;30.80;35.00
46366;DHT22;32073;49.166;8.076;2022-08-19T17:52:26;30.70;34.80
46366;DHT22;32073;49.166;8.076;2022-08-19T17:56:27;30.70;34.80
46366;DHT22;32073;49.166;8.076;2022-08-19T18:00:28;30.70;34.80
46366;DHT22;32073;49.166;8.076;2022-08-19T18:04:28;30.60;34.60
46366;DHT22;32073;49.166;8.076;2022-08-19T18:08:29;30.60;34.60
46366;DHT22;32073;49.166;8.076;2022-08-19T18:12:30;30.50;34.40
46366;DHT22;32073;49.166;8.076;2022-08-19T18:16:31;30.50;34.40
46366;DHT22;32073;49.166;8.076;2022-08-19T18:20:31;30.40;34.30
46366;DHT22;32073;49.166;8.076;2022-08-19T18:24:37;30.30;34.40
46366;DHT22;32073;49.166;8.076;2022-08-19T18:28:38;30.20;34.40
46366;DHT22;32073;49.166;8.076;2022-08-19T18:32:40;30.10;34.30
46366;DHT22;32073;49.166;8.076;2022-08-19T18:36:41;30.00;34.40
46366;DHT22;32073;49.166;8.076;2022-08-19T18:40:42;29.90;34.50
46366;DHT22;32073;49.166;8.076;2022-08-19T18:45:03;29.80;34.70
46366;DHT22;32073;49.166;8.076;2022-08-19T18:49:26;29.70;34.90
46366;DHT22;32073;49.166;8.076;2022-08-19T18:53:31;29.60;35.10
46366;DHT22;32073;49.166;8.076;2022-08-19T18:57:33;29.40;35.30
46366;DHT22;32073;49.166;8.076;2022-08-19T19:01:37;29.30;35.50
46366;DHT22;32073;49.166;8.076;2022-08-19T19:05:38;29.20;35.80
46366;DHT22;32073;49.166;8.076;2022-08-19T19:09:39;29.10;36.00
46366;DHT22;32073;49.166;8.076;2022-08-19T19:13:40;29.10;36.40
46366;DHT22;32073;49.166;8.076;2022-08-19T19:17:40;28.90;36.50
46366;DHT22;32073;49.166;8.076;2022-08-19T19:21:43;28.80;36.70
46366;DHT22;32073;49.166;8.076;2022-08-19T19:25:48;28.70;37.00
46366;DHT22;32073;49.166;8.076;2022-08-19T19:29:50;28.60;37.30
46366;DHT22;32073;49.166;8.076;2022-08-19T19:33:53;28.50;37.50
46366;DHT22;32073;49.166;8.076;2022-08-19T19:37:55;28.50;37.90
46366;DHT22;32073;49.166;8.076;2022-08-19T19:41:57;28.40;38.10
46366;DHT22;32073;49.166;8.076;2022-08-19T19:45:57;28.30;38.20
46366;DHT22;32073;49.166;8.076;2022-08-19T19:49:58;28.30;38.50
46366;DHT22;32073;49.166;8.076;2022-08-19T19:53:59;28.20;38.60
46366;DHT22;32073;49.166;8.076;2022-08-19T19:58:01;28.20;38.90
46366;DHT22;32073;49.166;8.076;2022-08-19T20:02:03;28.10;39.30
46366;DHT22;32073;49.166;8.076;2022-08-19T20:06:06;28.00;39.40
46366;DHT22;32073;49.166;8.076;2022-08-19T20:10:10;27.90;39.60
46366;DHT22;32073;49.166;8.076;2022-08-19T20:14:15;27.70;39.80
46366;DHT22;32073;49.166;8.076;2022-08-19T20:18:27;27.80;40.30
46366;DHT22;32073;49.166;8.076;2022-08-19T20:22:27;27.70;40.50
46366;DHT22;32073;49.166;8.076;2022-08-19T20:26:29;27.70;40.80
46366;DHT22;32073;49.166;8.076;2022-08-19T20:30:30;27.60;41.00
46366;DHT22;32073;49.166;8.076;2022-08-19T20:34:30;27.50;41.20
46366;DHT22;32073;49.166;8.076;2022-08-19T20:38:33;27.50;41.40
46366;DHT22;32073;49.166;8.076;2022-08-19T20:42:35;27.40;41.70
46366;DHT22;32073;49.166;8.076;2022-08-19T20:46:39;27.30;41.80
46366;DHT22;32073;49.166;8.076;2022-08-19T20:50:40;27.30;42.10
46366;DHT22;32073;49.166;8.076;2022-08-19T20:54:41;27.30;42.30
46366;DHT22;32073;49.166;8.076;2022-08-19T20:58:42;27.20;42.30
46366;DHT22;32073;49.166;8.076;2022-08-19T21:02:42;27.20;42.60
46366;DHT22;32073;49.166;8.076;2022-08-19T21:06:43;27.20;42.70
46366;DHT22;32073;49.166;8.076;2022-08-19T21:10:45;27.20;42.80
46366;DHT22;32073;49.166;8.076;2022-08-19T21:14:46;27.10;43.00
46366;DHT22;32073;49.166;8.076;2022-08-19T21:18:47;27.10;43.20
46366;DHT22;32073;49.166;8.076;2022-08-19T21:22:48;27.10;43.50
46366;DHT22;32073;49.166;8.076;2022-08-19T21:26:49;27.00;43.60
46366;DHT22;32073;49.166;8.076;2022-08-19T21:30:50;27.00;43.60
46366;DHT22;32073;49.166;8.076;2022-08-19T21:34:53;26.90;43.70
46366;DHT22;32073;49.166;8.076;2022-08-19T21:38:53;26.90;43.90
46366;DHT22;32073;49.166;8.076;2022-08-19T21:42:54;26.90;44.00
46366;DHT22;32073;49.166;8.076;2022-08-19T21:46:55;26.90;44.20
46366;DHT22;32073;49.166;8.076;2022-08-19T21:50:56;26.90;44.10
46366;DHT22;32073;49.166;8.076;2022-08-19T21:54:56;26.90;44.20
46366;DHT22;32073;49.166;8.076;2022-08-19T21:58:57;26.90;44.00
46366;DHT22;32073;49.166;8.076;2022-08-19T22:02:58;26.90;44.30
46366;DHT22;32073;49.166;8.076;2022-08-19T22:06:59;26.90;44.40
46366;DHT22;32073;49.166;8.076;2022-08-19T22:11:01;26.80;44.50
46366;DHT22;32073;49.166;8.076;2022-08-19T22:15:04;26.80;44.60
46366;DHT22;32073;49.166;8.076;2022-08-19T22:19:08;26.80;44.70
46366;DHT22;32073;49.166;8.076;2022-08-19T22:23:09;26.70;44.60
46366;DHT22;32073;49.166;8.076;2022-08-19T22:27:10;26.60;44.80
46366;DHT22;32073;49.166;8.076;2022-08-19T22:31:11;26.60;45.00
46366;DHT22;32073;49.166;8.076;2022-08-19T22:35:14;26.50;45.00
46366;DHT22;32073;49.166;8.076;2022-08-19T22:39:15;26.50;44.90
46366;DHT22;32073;49.166;8.076;2022-08-19T22:43:20;26.50;45.20
46366;DHT22;32073;49.166;8.076;2022-08-19T22:47:24;26.40;45.50
46366;DHT22;32073;49.166;8.076;2022-08-19T22:51:25;26.40;45.50
46366;DHT22;32073;49.166;8.076;2022-08-19T22:55:45;26.40;45.60
46366;DHT22;32073;49.166;8.076;2022-08-19T22:59:47;26.40;45.60
46366;DHT22;32073;49.166;8.076;2022-08-19T23:03:49;26.30;45.40
46366;DHT22;32073;49.166;8.076;2022-08-19T23:07:50;26.30;45.60
46366;DHT22;32073;49.166;8.076;2022-08-19T23:11:51;26.30;45.70
46366;DHT22;32073;49.166;8.076;2022-08-19T23:15:51;26.30;45.70
46366;DHT22;32073;49.166;8.076;2022-08-19T23:19:52;26.20;45.70
46366;DHT22;32073;49.166;8.076;2022-08-19T23:23:53;26.20;45.80
46366;DHT22;32073;49.166;8.076;2022-08-19T23:27:54;26.20;45.90
46366;DHT22;32073;49.166;8.076;2022-08-19T23:32:13;26.20;46.30
46366;DHT22;32073;49.166;8.076;2022-08-19T23:36:15;26.10;46.30
46366;DHT22;32073;49.166;8.076;2022-08-19T23:40:18;26.00;46.40
46366;DHT22;32073;49.166;8.076;2022-08-19T23:44:21;26.00;46.30
46366;DHT22;32073;49.166;8.076;2022-08-19T23:48:22;25.90;46.50
46366;DHT22;32073;49.166;8.076;2022-08-19T23:52:22;25.80;46.60
46366;DHT22;32073;49.166;8.076;2022-08-19T23:56:23;25.90;47.00
